createdAt,value
2019-05-20T00:00:16.722Z,96822.93
2019-05-20T00:04:21.641Z,96823.52
2019-05-20T00:08:26.524Z,96825.97
2019-05-20T00:12:31.426Z,96829.45
2019-05-20T00:16:37.177Z,96817.33
2019-05-20T00:20:42.145Z,96824.81
2019-05-20T00:24:47.047Z,96825.66
2019-05-20T00:28:52.013Z,96821.51
2019-05-20T00:32:56.980Z,96821.76
2019-05-20T00:37:01.898Z,96817.17
2019-05-20T00:41:06.793Z,96816.63
2019-05-20T00:45:12.429Z,96814.24
2019-05-20T00:49:17.335Z,96819.16
2019-05-20T00:53:22.250Z,96815.02
2019-05-20T00:57:27.140Z,96818.24
2019-05-20T01:01:32.040Z,96811.53
2019-05-20T01:05:36.932Z,96816.66
2019-05-20T01:09:41.831Z,96807.43
2019-05-20T01:13:46.729Z,96805.05
2019-05-20T01:17:51.617Z,96802.59
2019-05-20T01:21:56.513Z,96804.78
2019-05-20T01:26:01.408Z,96796.00
2019-05-20T01:30:08.512Z,96790.57
2019-05-20T01:34:13.412Z,96788.52
2019-05-20T01:38:18.317Z,96792.59
2019-05-20T01:42:23.213Z,96784.65
2019-05-20T01:46:28.110Z,96777.34
2019-05-20T01:50:33.014Z,96774.63
2019-05-20T01:54:37.917Z,96770.98
2019-05-20T01:58:42.799Z,96769.96
2019-05-20T02:02:48.659Z,96765.48
2019-05-20T02:06:53.558Z,96762.22
2019-05-20T02:10:58.451Z,96763.45
2019-05-20T02:15:11.830Z,96771.23
2019-05-20T02:19:16.725Z,96770.55
2019-05-20T02:23:21.610Z,96777.66
2019-05-20T02:27:26.504Z,96775.23
2019-05-20T02:31:31.412Z,96775.79
2019-05-20T02:35:36.301Z,96775.42
2019-05-20T02:39:41.207Z,96774.48
2019-05-20T02:43:46.094Z,96769.98
2019-05-20T02:47:52.061Z,96772.91
2019-05-20T02:51:56.964Z,96772.42
2019-05-20T02:56:01.938Z,96770.16
2019-05-20T03:00:07.784Z,96785.80
2019-05-20T03:04:13.203Z,96794.79
2019-05-20T03:08:18.229Z,96793.74
2019-05-20T03:12:23.130Z,96795.04
2019-05-20T03:16:28.024Z,96793.83
2019-05-20T03:20:32.930Z,96801.38
2019-05-20T03:24:37.814Z,96794.69
2019-05-20T03:28:42.789Z,96797.18
2019-05-20T03:32:47.682Z,96799.46
2019-05-20T03:36:52.583Z,96804.11
2019-05-20T03:40:57.470Z,96795.55
2019-05-20T03:45:02.742Z,96804.73
2019-05-20T03:49:08.613Z,96804.30
2019-05-20T03:53:13.516Z,96806.62
2019-05-20T03:57:18.411Z,96802.84
2019-05-20T04:01:23.320Z,96803.28
2019-05-20T04:05:28.201Z,96797.82
2019-05-20T04:09:33.105Z,96802.30
2019-05-20T04:13:38.570Z,96799.58
2019-05-20T04:17:43.483Z,96799.58
2019-05-20T04:21:48.381Z,96799.27
2019-05-20T04:25:54.238Z,96796.70
2019-05-20T04:29:59.141Z,96801.42
2019-05-20T04:34:04.042Z,96796.08
2019-05-20T04:38:08.937Z,96798.39
2019-05-20T04:42:13.845Z,96796.17
2019-05-20T04:46:18.744Z,96795.84
2019-05-20T04:50:23.640Z,96791.13
2019-05-20T04:54:28.544Z,96795.53
2019-05-20T04:58:33.429Z,96786.98
2019-05-20T05:02:38.328Z,96791.98
2019-05-20T05:06:43.284Z,96797.02
2019-05-20T05:10:49.790Z,96785.09
2019-05-20T05:14:55.765Z,96785.14
2019-05-20T05:19:00.660Z,96772.44
2019-05-20T05:23:05.561Z,96788.03
2019-05-20T05:27:10.456Z,96777.55
2019-05-20T05:31:15.361Z,96790.33
2019-05-20T05:35:20.592Z,96794.72
2019-05-20T05:39:25.495Z,96791.75
2019-05-20T05:43:30.388Z,96791.75
2019-05-20T05:47:36.248Z,96789.28
2019-05-20T05:51:41.143Z,96789.28
2019-05-20T05:55:46.041Z,96797.11
2019-05-20T05:59:50.939Z,96787.54
2019-05-20T06:03:55.836Z,96803.39
2019-05-20T06:08:00.733Z,96809.05
2019-05-20T06:12:05.630Z,96812.73
2019-05-20T06:16:10.540Z,96817.22
2019-05-20T06:20:15.861Z,96827.88
2019-05-20T06:24:20.762Z,96830.14
2019-05-20T06:28:25.650Z,96831.86
2019-05-20T06:32:30.550Z,96838.24
2019-05-20T06:36:37.171Z,96839.09
2019-05-20T06:40:42.065Z,96843.05
2019-05-20T06:44:53.146Z,96840.63
2019-05-20T06:48:53.618Z,96842.53
2019-05-20T06:52:58.518Z,96846.80
2019-05-20T06:57:03.485Z,96859.38
2019-05-20T07:01:08.418Z,96853.60
2019-05-20T07:05:13.392Z,96845.83
2019-05-20T07:09:18.272Z,96845.58
2019-05-20T07:13:23.175Z,96847.00
2019-05-20T07:17:28.078Z,96843.41
2019-05-20T07:21:32.986Z,96849.77
2019-05-20T07:25:37.883Z,96850.45
2019-05-20T07:29:42.852Z,96847.59
2019-05-20T07:33:47.754Z,96847.92
2019-05-20T07:37:52.657Z,96853.94
2019-05-20T07:41:57.556Z,96847.08
2019-05-20T07:46:03.104Z,96861.27
2019-05-20T07:50:10.329Z,96846.35
2019-05-20T07:54:16.070Z,96849.56
2019-05-20T07:58:24.273Z,96852.13
2019-05-20T08:02:30.144Z,96857.62
2019-05-20T08:06:35.030Z,96846.92
2019-05-20T08:10:39.900Z,96849.94
2019-05-20T08:14:44.798Z,96850.45
2019-05-20T08:18:49.712Z,96853.50
2019-05-20T08:22:54.599Z,96858.16
2019-05-20T08:26:59.492Z,96852.66
2019-05-20T08:31:04.464Z,96851.17
2019-05-20T08:35:09.889Z,96857.94
2019-05-20T08:39:14.798Z,96862.91
2019-05-20T08:43:19.698Z,96875.75
2019-05-20T08:47:24.607Z,96860.37
2019-05-20T08:51:29.861Z,96867.17
2019-05-20T08:55:35.797Z,96871.56
2019-05-20T08:59:40.653Z,96872.33
2019-05-20T09:03:45.546Z,96876.55
2019-05-20T09:08:02.440Z,96879.62
2019-05-20T09:11:57.123Z,96873.33
2019-05-20T09:16:02.089Z,96868.84
2019-05-20T09:20:08.396Z,96869.79
2019-05-20T09:24:18.071Z,96866.91
2019-05-20T09:28:20.928Z,96865.81
2019-05-20T09:32:25.766Z,96865.22
2019-05-20T09:36:30.656Z,96868.64
2019-05-20T09:40:40.329Z,96864.86
2019-05-20T09:44:46.211Z,96873.05
2019-05-20T09:48:51.111Z,96866.73
2019-05-20T09:52:55.992Z,96862.02
2019-05-20T09:57:00.877Z,96864.18
2019-05-20T10:01:06.848Z,96867.91
2019-05-20T10:05:11.747Z,96873.47
2019-05-20T10:09:16.649Z,96867.73
2019-05-20T10:13:21.541Z,96870.93
2019-05-20T10:17:27.395Z,96869.44
2019-05-20T10:21:32.294Z,96879.02
2019-05-20T10:25:37.198Z,96872.81
2019-05-20T10:29:43.063Z,96875.57
2019-05-20T10:33:48.034Z,96869.39
2019-05-20T10:37:52.923Z,96882.19
2019-05-20T10:41:57.817Z,96882.52
2019-05-20T10:46:02.797Z,96881.15
2019-05-20T10:50:07.926Z,96885.40
2019-05-20T10:54:12.827Z,96888.30
2019-05-20T10:58:17.733Z,96888.83
2019-05-20T11:02:22.635Z,96891.06
2019-05-20T11:06:27.536Z,96899.95
2019-05-20T11:10:32.434Z,96906.95
2019-05-20T11:14:37.340Z,96911.16
2019-05-20T11:18:42.227Z,96905.58
2019-05-20T11:22:47.122Z,96908.16
2019-05-20T11:26:52.028Z,96895.56
2019-05-20T11:30:56.927Z,96890.05
2019-05-20T11:35:02.299Z,96895.52
2019-05-20T11:39:07.660Z,96898.76
2019-05-20T11:43:12.552Z,96893.83
2019-05-20T11:47:17.450Z,96895.17
2019-05-20T11:51:22.353Z,96890.48
2019-05-20T11:55:27.299Z,96898.55
2019-05-20T11:59:32.157Z,96893.94
2019-05-20T12:03:37.055Z,96891.56
2019-05-20T12:07:42.016Z,96896.61
2019-05-20T12:11:46.884Z,96896.94
2019-05-20T12:15:51.783Z,96899.48
2019-05-20T12:19:57.746Z,96892.78
2019-05-20T12:24:02.653Z,96894.39
2019-05-20T12:28:07.543Z,96896.56
2019-05-20T12:32:12.459Z,96898.02
2019-05-20T12:36:18.313Z,96904.16
2019-05-20T12:40:23.281Z,96899.99
2019-05-20T12:44:28.171Z,96904.23
2019-05-20T12:48:33.068Z,96904.73
2019-05-20T12:52:39.104Z,96905.20
2019-05-20T12:56:44.758Z,96903.13
2019-05-20T13:00:50.027Z,96905.91
2019-05-20T13:04:54.911Z,96910.25
2019-05-20T13:08:59.815Z,96928.28
2019-05-20T13:13:04.735Z,96925.38
2019-05-20T13:17:09.603Z,96911.48
2019-05-20T13:21:14.504Z,96912.48
2019-05-20T13:25:20.930Z,96908.52
2019-05-20T13:29:25.860Z,96894.86
2019-05-20T13:33:30.743Z,96886.92
2019-05-20T13:37:35.638Z,96884.34
2019-05-20T13:41:40.538Z,96873.03
2019-05-20T13:45:48.030Z,96868.30
2019-05-20T13:49:52.140Z,96861.08
2019-05-20T13:53:57.036Z,96846.16
2019-05-20T13:58:02.073Z,96856.18
2019-05-20T14:02:06.868Z,96870.30
2019-05-20T14:06:11.808Z,96881.53
2019-05-20T14:10:17.129Z,96892.91
2019-05-20T14:14:22.018Z,96894.40
2019-05-20T14:18:26.924Z,96893.06
2019-05-20T14:22:31.812Z,96895.61
2019-05-20T14:26:36.811Z,96911.12
2019-05-20T14:30:41.711Z,96897.09
2019-05-20T14:34:46.599Z,96896.63
2019-05-20T14:38:51.499Z,96893.29
2019-05-20T14:42:56.394Z,96899.42
2019-05-20T14:47:01.319Z,96903.50
2019-05-20T14:51:06.191Z,96906.61
2019-05-20T14:55:11.235Z,96923.41
2019-05-20T14:59:16.201Z,96933.22
2019-05-20T15:03:21.114Z,96940.75
2019-05-20T15:07:30.595Z,96948.59
2019-05-20T15:11:38.097Z,96942.86
2019-05-20T15:15:39.198Z,96945.17
2019-05-20T15:19:44.092Z,96935.44
2019-05-20T15:23:49.056Z,96932.22
2019-05-20T15:27:54.780Z,96928.95
2019-05-20T15:31:59.679Z,96916.22
2019-05-20T15:36:04.732Z,96922.61
2019-05-20T15:40:09.952Z,96919.00
2019-05-20T15:44:14.839Z,96921.78
2019-05-20T15:48:19.733Z,96924.66
2019-05-20T15:52:24.716Z,96924.66
2019-05-20T15:56:29.620Z,96935.09
2019-05-20T16:00:34.525Z,96936.77
2019-05-20T16:04:39.434Z,96941.09
2019-05-20T16:08:44.336Z,96946.01
2019-05-20T16:12:49.237Z,96934.38
2019-05-20T16:16:54.132Z,96922.72
2019-05-20T16:20:59.047Z,96925.72
2019-05-20T16:25:08.494Z,96919.83
2019-05-20T16:29:13.390Z,96915.95
2019-05-20T16:33:18.278Z,96913.92
2019-05-20T16:37:23.181Z,96913.05
2019-05-20T16:41:28.076Z,96916.98
2019-05-20T16:45:32.980Z,96916.39
2019-05-20T16:49:37.876Z,96923.70
2019-05-20T16:53:42.849Z,96936.52
2019-05-20T16:57:47.688Z,96933.77
2019-05-20T17:01:52.571Z,96941.34
2019-05-20T17:05:57.477Z,96942.05
2019-05-20T17:10:02.736Z,96948.43
2019-05-20T17:14:10.592Z,96934.50
2019-05-20T17:18:14.342Z,96943.73
2019-05-20T17:22:19.237Z,96953.20
2019-05-20T17:26:24.146Z,96948.14
2019-05-20T17:30:29.033Z,96945.16
2019-05-20T17:34:33.927Z,96949.94
2019-05-20T17:38:38.823Z,96953.27
2019-05-20T17:42:43.722Z,96953.13
2019-05-20T17:46:48.686Z,96958.98
2019-05-20T17:50:53.919Z,96956.34
2019-05-20T17:54:59.783Z,96965.20
2019-05-20T17:59:04.743Z,96978.62
2019-05-20T18:03:09.648Z,96968.14
2019-05-20T18:07:14.547Z,96958.61
2019-05-20T18:11:19.576Z,96961.11
2019-05-20T18:15:24.428Z,96971.16
2019-05-20T18:19:29.322Z,96972.94
2019-05-20T18:23:34.222Z,96970.91
2019-05-20T18:27:39.349Z,96975.78
2019-05-20T18:31:44.304Z,96975.54
2019-05-20T18:35:49.212Z,96977.47
2019-05-20T18:39:54.247Z,96977.57
2019-05-20T18:43:59.150Z,96977.66
2019-05-20T18:48:04.050Z,96977.66
2019-05-20T18:52:08.947Z,96969.86
2019-05-20T18:56:13.833Z,96966.00
2019-05-20T19:00:19.546Z,96970.42
2019-05-20T19:04:24.438Z,96959.98
2019-05-20T19:08:29.400Z,96958.09
2019-05-20T19:12:34.318Z,96956.04
2019-05-20T19:16:39.208Z,96940.39
2019-05-20T19:20:44.108Z,96954.67
2019-05-20T19:24:49.004Z,96966.16
2019-05-20T19:28:53.915Z,96962.06
2019-05-20T19:32:58.806Z,96970.06
2019-05-20T19:37:03.704Z,96976.88
2019-05-20T19:41:08.670Z,96982.87
2019-05-20T19:45:13.824Z,96994.84
2019-05-20T19:49:18.726Z,96994.84
2019-05-20T19:53:23.621Z,96994.80
2019-05-20T19:57:29.588Z,96994.80
2019-05-20T20:01:34.493Z,97012.31
2019-05-20T20:05:39.394Z,97012.31
2019-05-20T20:09:44.303Z,97010.61
2019-05-20T20:13:49.216Z,97023.63
2019-05-20T20:17:54.112Z,97023.63
2019-05-20T20:21:59.078Z,97029.03
2019-05-20T20:26:04.031Z,97012.13
2019-05-20T20:30:09.473Z,97033.17
2019-05-20T20:34:14.527Z,97031.33
2019-05-20T20:38:19.414Z,97025.12
2019-05-20T20:42:24.321Z,97013.18
2019-05-20T20:46:29.225Z,97014.08
2019-05-20T20:50:34.203Z,97019.12
2019-05-20T20:54:39.106Z,97019.12
2019-05-20T20:58:44.006Z,97015.41
2019-05-20T21:02:53.145Z,97017.70
2019-05-20T21:06:55.511Z,96986.50
2019-05-20T21:11:00.414Z,97025.12
2019-05-20T21:15:05.757Z,97023.66
2019-05-20T21:19:10.655Z,97027.98
2019-05-20T21:23:15.551Z,97010.91
2019-05-20T21:27:20.469Z,97010.91
2019-05-20T21:31:25.440Z,97031.93
2019-05-20T21:35:30.343Z,97024.03
2019-05-20T21:39:35.235Z,97004.41
2019-05-20T21:43:40.144Z,97004.41
2019-05-20T21:47:45.042Z,97024.34
2019-05-20T21:51:49.948Z,97027.77
2019-05-20T21:55:54.953Z,97024.89
2019-05-20T21:59:59.847Z,97023.83
2019-05-20T22:04:04.759Z,97025.15
2019-05-20T22:08:09.663Z,97033.23
2019-05-20T22:12:14.587Z,97028.47
2019-05-20T22:16:19.509Z,97031.35
2019-05-20T22:20:24.394Z,97028.16
2019-05-20T22:24:29.303Z,97032.26
2019-05-20T22:28:34.206Z,97029.81
2019-05-20T22:32:39.105Z,97029.66
2019-05-20T22:36:44.013Z,97029.66
2019-05-20T22:40:48.908Z,97021.23
2019-05-20T22:44:53.815Z,97024.84
2019-05-20T22:48:58.733Z,97014.66
2019-05-20T22:53:03.646Z,97019.41
2019-05-20T22:57:08.543Z,97018.75
2019-05-20T23:01:13.433Z,97003.73
2019-05-20T23:05:18.342Z,97006.41
2019-05-20T23:09:24.218Z,97015.94
2019-05-20T23:13:29.146Z,97008.55
2019-05-20T23:17:34.049Z,97002.28
2019-05-20T23:21:38.937Z,97004.20
2019-05-20T23:25:43.852Z,96999.88
2019-05-20T23:29:48.757Z,96982.62
2019-05-20T23:33:53.667Z,96982.62
2019-05-20T23:37:58.573Z,96985.63
2019-05-20T23:42:03.467Z,96988.98
2019-05-20T23:46:08.368Z,96993.30
2019-05-20T23:50:13.970Z,96980.55
2019-05-20T23:54:18.857Z,96980.55
2019-05-20T23:58:23.761Z,96981.68
